createdAt,value
2024-02-29T14:49:43.500Z,101181.23
2024-02-29T14:54:50.881Z,101175.38
2024-02-29T14:59:58.387Z,101173.95
2024-02-29T15:05:10.510Z,101169.26
2024-02-29T15:10:22.309Z,101164.16
2024-02-29T15:15:33.361Z,101156.49
2024-02-29T15:20:47.996Z,101149.56
2024-02-29T15:25:55.921Z,101147.96
2024-02-29T15:31:03.282Z,101146.30
2024-02-29T15:36:13.736Z,101140.77
2024-02-29T15:41:21.681Z,101138.73
2024-02-29T15:46:27.685Z,101138.56
2024-02-29T15:51:35.543Z,101138.02
2024-02-29T15:56:47.538Z,101135.44
2024-02-29T16:01:55.481Z,101131.08
2024-02-29T16:07:02.150Z,101130.83
2024-02-29T16:12:13.225Z,101127.65
2024-02-29T16:17:20.666Z,101127.05
2024-02-29T16:22:28.706Z,101125.27
2024-02-29T16:27:36.600Z,101122.16
2024-02-29T16:32:47.309Z,101119.20
2024-02-29T16:37:57.807Z,101117.38
2024-02-29T16:43:07.388Z,101118.45
2024-02-29T16:48:17.844Z,101120.01
2024-02-29T16:53:25.903Z,101116.40
2024-02-29T16:58:37.196Z,101108.97
2024-02-29T17:03:48.895Z,101107.47
2024-02-29T17:08:56.485Z,101106.71
2024-02-29T17:14:04.046Z,101102.02
2024-02-29T17:19:11.655Z,101096.21
2024-02-29T17:24:24.614Z,101096.80
2024-02-29T17:29:32.579Z,101096.49
2024-02-29T17:34:39.987Z,101089.06
2024-02-29T17:39:54.636Z,101084.49
2024-02-29T17:45:12.415Z,101088.30
2024-02-29T17:50:23.903Z,101085.88
2024-02-29T17:55:31.648Z,101086.00
2024-02-29T18:00:41.543Z,101083.41
2024-02-29T18:05:52.079Z,101077.17
2024-02-29T18:10:59.765Z,101069.32
2024-02-29T18:16:08.643Z,101065.10
2024-02-29T18:21:17.263Z,101061.29
2024-02-29T18:26:24.716Z,101061.84
2024-02-29T18:31:55.786Z,101052.58
2024-02-29T18:37:03.292Z,101050.52
2024-02-29T18:42:11.537Z,101052.90
2024-02-29T18:47:21.879Z,101042.41
2024-02-29T18:52:30.924Z,101034.02
2024-02-29T18:57:49.664Z,101025.14
2024-02-29T19:02:59.926Z,101017.66
2024-02-29T19:08:22.642Z,101013.86
2024-02-29T19:13:39.708Z,101006.60
2024-02-29T19:18:58.518Z,100992.94
2024-02-29T19:24:13.052Z,100984.91
2024-02-29T19:29:22.753Z,100978.45
2024-02-29T19:34:30.818Z,100970.70
2024-02-29T19:39:41.414Z,100965.20
2024-02-29T19:44:54.410Z,100960.94
2024-02-29T19:50:57.000Z,100962.81
2024-02-29T19:57:11.624Z,100957.91
2024-02-29T20:02:43.263Z,100948.08
2024-02-29T20:07:57.629Z,100949.79
2024-02-29T20:13:09.339Z,100950.39
2024-02-29T20:18:24.571Z,100950.01
2024-02-29T20:23:33.059Z,100945.60
2024-02-29T20:28:48.938Z,100937.63
2024-02-29T20:34:00.167Z,100930.52
2024-02-29T20:39:14.562Z,100930.30
2024-02-29T20:44:43.785Z,100927.12
2024-02-29T20:50:35.362Z,100924.38
2024-02-29T20:56:26.640Z,100922.54
2024-02-29T21:15:04.655Z,100902.11
2024-02-29T21:20:18.013Z,100904.95
2024-02-29T21:25:44.256Z,100899.91
2024-02-29T21:31:10.069Z,100891.45
2024-02-29T21:37:30.786Z,100883.30
2024-02-29T21:43:03.192Z,100874.36
2024-02-29T21:55:12.537Z,100863.67
2024-02-29T22:00:30.573Z,100863.85
2024-02-29T22:06:32.958Z,100861.02
2024-02-29T22:11:58.079Z,100854.79
2024-02-29T22:17:11.640Z,100846.95
2024-02-29T22:22:22.576Z,100843.36
2024-02-29T22:27:44.834Z,100839.76
2024-02-29T22:33:13.950Z,100837.83
2024-02-29T22:38:32.819Z,100833.23
2024-02-29T22:43:47.238Z,100834.04
2024-02-29T22:49:06.356Z,100828.83
2024-02-29T22:54:13.035Z,100818.24
2024-02-29T22:59:23.621Z,100812.70
2024-02-29T23:04:41.565Z,100806.79
2024-02-29T23:09:52.655Z,100804.52
2024-02-29T23:15:05.406Z,100806.77
2024-02-29T23:20:18.869Z,100804.36
2024-02-29T23:25:28.461Z,100798.44
2024-02-29T23:30:36.883Z,100793.26
2024-02-29T23:35:47.323Z,100788.77
2024-02-29T23:40:56.468Z,100784.56
2024-02-29T23:46:08.786Z,100781.86
2024-02-29T23:51:18.036Z,100776.33
2024-02-29T23:56:28.024Z,100769.86
